createdAt,value
2022-08-18T00:02:07.730Z,20.29
2022-08-18T00:04:45.306Z,20.30
2022-08-18T00:07:25.013Z,20.32
2022-08-18T00:09:51.608Z,20.29
2022-08-18T00:12:25.139Z,20.26
2022-08-18T00:14:52.706Z,20.24
2022-08-18T00:17:20.286Z,20.09
2022-08-18T00:19:48.505Z,20.03
2022-08-18T00:22:19.268Z,20.16
2022-08-18T00:24:49.392Z,20.11
2022-08-18T00:27:28.396Z,20.10
2022-08-18T00:30:00.450Z,20.09
2022-08-18T00:32:33.850Z,20.07
2022-08-18T00:35:12.942Z,20.03
2022-08-18T00:37:40.925Z,19.93
2022-08-18T00:40:09.733Z,19.92
2022-08-18T00:42:45.234Z,19.92
2022-08-18T00:45:16.879Z,19.90
2022-08-18T00:47:43.476Z,19.86
2022-08-18T00:50:24.508Z,19.86
2022-08-18T00:52:59.132Z,19.85
2022-08-18T00:55:27.522Z,19.76
2022-08-18T00:58:01.238Z,19.80
2022-08-18T01:00:27.944Z,19.61
2022-08-18T01:03:00.194Z,19.76
2022-08-18T01:05:34.143Z,19.71
2022-08-18T01:08:01.229Z,19.67
2022-08-18T01:10:27.795Z,19.65
2022-08-18T01:12:57.180Z,19.66
2022-08-18T01:15:29.196Z,19.69
2022-08-18T01:18:17.201Z,19.64
2022-08-18T01:21:23.678Z,19.69
2022-08-18T01:23:52.521Z,19.62
2022-08-18T01:26:22.650Z,19.56
2022-08-18T01:28:49.640Z,19.75
2022-08-18T01:31:38.631Z,19.51
2022-08-18T01:34:10.809Z,19.63
2022-08-18T01:36:40.647Z,19.61
2022-08-18T01:39:10.753Z,19.57
2022-08-18T01:41:37.726Z,19.58
2022-08-18T01:44:11.209Z,19.59
2022-08-18T01:46:39.562Z,19.58
2022-08-18T01:49:08.347Z,19.57
2022-08-18T01:51:39.981Z,19.56
2022-08-18T01:54:12.528Z,19.55
2022-08-18T01:56:40.817Z,19.55
2022-08-18T01:59:13.536Z,19.53
2022-08-18T02:01:52.777Z,19.54
2022-08-18T02:04:34.942Z,19.54
2022-08-18T02:07:05.738Z,19.55
2022-08-18T02:09:33.649Z,19.34
2022-08-18T02:12:01.321Z,19.48
2022-08-18T02:14:27.807Z,19.52
2022-08-18T02:17:02.561Z,19.54
2022-08-18T02:19:38.771Z,19.54
2022-08-18T02:22:08.322Z,19.50
2022-08-18T02:24:35.581Z,19.54
2022-08-18T02:27:02.018Z,19.52
2022-08-18T02:29:29.018Z,19.49
2022-08-18T02:31:55.871Z,19.55
2022-08-18T02:34:22.974Z,19.55
2022-08-18T02:36:49.504Z,19.56
2022-08-18T02:39:15.949Z,19.55
2022-08-18T02:41:42.423Z,19.41
2022-08-18T02:44:09.247Z,19.55
2022-08-18T02:46:36.712Z,19.51
2022-08-18T02:49:04.384Z,19.39
2022-08-18T02:51:31.575Z,19.57
2022-08-18T02:54:01.074Z,19.57
2022-08-18T02:56:39.903Z,19.60
2022-08-18T02:59:12.802Z,19.50
2022-08-18T03:01:43.271Z,19.60
2022-08-18T03:04:14.188Z,19.59
2022-08-18T03:06:40.899Z,19.59
2022-08-18T03:09:10.121Z,19.58
2022-08-18T03:11:37.531Z,19.59
2022-08-18T03:14:05.549Z,19.57
2022-08-18T03:16:33.245Z,19.57
2022-08-18T03:19:01.558Z,19.56
2022-08-18T03:21:30.835Z,19.45
2022-08-18T03:24:01.372Z,19.56
2022-08-18T03:26:30.989Z,19.53
2022-08-18T03:28:58.808Z,19.53
2022-08-18T03:31:27.834Z,19.53
2022-08-18T03:33:59.090Z,19.49
2022-08-18T03:36:29.001Z,19.55
2022-08-18T03:38:55.500Z,19.55
2022-08-18T03:41:44.467Z,19.54
2022-08-18T03:44:13.134Z,19.44
2022-08-18T03:46:42.211Z,19.53
2022-08-18T03:49:09.514Z,19.53
2022-08-18T03:51:36.927Z,19.50
2022-08-18T03:54:05.856Z,19.42
2022-08-18T03:56:38.272Z,19.50
2022-08-18T03:59:12.875Z,19.48
2022-08-18T04:01:42.176Z,19.47
2022-08-18T04:04:12.483Z,19.47
2022-08-18T04:06:42.218Z,19.57
2022-08-18T04:09:12.546Z,19.48
2022-08-18T04:11:43.279Z,19.35
2022-08-18T04:14:13.023Z,19.42
2022-08-18T04:16:40.475Z,19.33
2022-08-18T04:19:07.455Z,19.37
2022-08-18T04:21:36.193Z,19.39
2022-08-18T04:24:05.191Z,19.41
2022-08-18T04:26:34.461Z,19.42
2022-08-18T04:29:01.695Z,19.44
2022-08-18T04:31:29.870Z,19.45
2022-08-18T04:33:58.403Z,19.44
2022-08-18T04:36:26.197Z,19.49
2022-08-18T04:38:52.706Z,19.50
2022-08-18T04:41:27.621Z,19.67
2022-08-18T04:43:55.488Z,19.60
2022-08-18T04:46:22.747Z,19.61
2022-08-18T04:48:51.254Z,19.60
2022-08-18T04:52:34.541Z,19.69
2022-08-18T04:54:07.424Z,19.71
2022-08-18T04:56:38.307Z,19.80
2022-08-18T04:59:08.309Z,19.84
2022-08-18T05:01:45.398Z,19.90
2022-08-18T05:04:14.361Z,19.93
2022-08-18T05:06:42.609Z,19.95
2022-08-18T05:09:10.582Z,20.01
2022-08-18T05:11:37.953Z,20.09
2022-08-18T05:14:08.297Z,20.16
2022-08-18T05:16:47.788Z,20.21
2022-08-18T05:19:21.923Z,20.26
2022-08-18T05:21:51.377Z,20.35
2022-08-18T05:24:21.734Z,20.42
2022-08-18T05:26:49.125Z,20.49
2022-08-18T05:29:19.070Z,20.54
2022-08-18T05:31:47.644Z,20.61
2022-08-18T05:34:14.455Z,20.67
2022-08-18T05:36:50.243Z,20.76
2022-08-18T05:39:26.755Z,20.84
2022-08-18T05:42:07.183Z,20.91
2022-08-18T05:44:40.089Z,20.98
2022-08-18T05:47:14.128Z,21.00
2022-08-18T05:49:44.281Z,21.15
2022-08-18T05:52:16.923Z,21.35
2022-08-18T05:55:10.495Z,21.32
2022-08-18T05:58:10.724Z,21.43
2022-08-18T06:00:37.988Z,21.41
2022-08-18T06:03:28.152Z,21.43
2022-08-18T06:06:08.947Z,21.46
2022-08-18T06:08:56.357Z,21.59
2022-08-18T06:11:23.397Z,21.63
2022-08-18T06:13:57.802Z,21.66
2022-08-18T06:16:42.199Z,21.62
2022-08-18T06:19:42.805Z,21.73
2022-08-18T06:22:18.787Z,21.80
2022-08-18T06:25:02.594Z,21.85
2022-08-18T06:27:31.050Z,21.84
2022-08-18T06:30:12.458Z,21.86
2022-08-18T06:33:03.714Z,21.88
2022-08-18T06:35:46.115Z,21.88
2022-08-18T06:38:36.295Z,21.87
2022-08-18T06:41:40.993Z,21.85
2022-08-18T06:43:58.952Z,21.87
2022-08-18T06:46:49.438Z,21.93
2022-08-18T06:49:28.751Z,21.91
2022-08-18T06:51:55.241Z,21.91
2022-08-18T06:54:22.010Z,21.91
2022-08-18T06:56:51.726Z,21.95
2022-08-18T06:59:30.787Z,22.01
2022-08-18T07:02:26.911Z,22.07
2022-08-18T07:05:25.345Z,22.03
2022-08-18T07:08:18.599Z,22.12
2022-08-18T07:10:51.324Z,22.10
2022-08-18T07:13:26.460Z,22.12
2022-08-18T07:15:55.650Z,22.10
2022-08-18T07:18:28.138Z,22.17
2022-08-18T07:21:01.909Z,22.19
2022-08-18T07:23:33.868Z,22.19
2022-08-18T07:26:17.139Z,22.21
2022-08-18T07:28:47.735Z,22.24
2022-08-18T07:31:17.389Z,22.27
2022-08-18T07:33:54.782Z,22.31
2022-08-18T07:36:26.339Z,22.36
2022-08-18T07:39:00.370Z,22.39
2022-08-18T07:41:35.424Z,22.40
2022-08-18T07:44:13.596Z,22.44
2022-08-18T07:46:46.558Z,22.43
2022-08-18T07:49:22.431Z,22.42
2022-08-18T07:52:44.294Z,22.44
2022-08-18T07:55:17.862Z,22.42
2022-08-18T07:58:04.463Z,22.37
2022-08-18T08:00:59.278Z,22.34
2022-08-18T08:03:59.298Z,22.39
2022-08-18T08:06:31.695Z,22.33
2022-08-18T08:09:23.151Z,22.38
2022-08-18T08:11:49.572Z,22.40
2022-08-18T08:14:29.582Z,22.51
2022-08-18T08:16:55.919Z,22.74
2022-08-18T08:19:58.788Z,22.77
2022-08-18T08:22:28.704Z,22.86
2022-08-18T08:25:47.134Z,23.05
2022-08-18T08:28:26.019Z,23.01
2022-08-18T08:31:25.600Z,23.29
2022-08-18T08:34:05.996Z,23.48
2022-08-18T08:36:37.530Z,23.57
2022-08-18T08:39:10.491Z,23.70
2022-08-18T08:42:00.421Z,23.84
2022-08-18T08:45:00.679Z,24.03
2022-08-18T08:47:36.788Z,24.10
2022-08-18T08:50:14.203Z,24.22
2022-08-18T08:53:10.133Z,24.32
2022-08-18T08:55:43.926Z,24.39
2022-08-18T08:58:26.530Z,24.71
2022-08-18T09:00:54.678Z,24.90
2022-08-18T09:03:39.385Z,25.14
2022-08-18T09:06:27.942Z,25.39
2022-08-18T09:09:01.682Z,25.42
2022-08-18T09:11:31.081Z,25.49
2022-08-18T09:14:43.743Z,25.65
2022-08-18T09:17:44.009Z,25.71
2022-08-18T09:20:49.341Z,25.78
2022-08-18T09:23:41.580Z,25.80
2022-08-18T09:26:47.091Z,25.80
2022-08-18T09:29:15.801Z,25.69
2022-08-18T09:31:45.353Z,25.68
2022-08-18T09:34:41.812Z,25.71
2022-08-18T09:37:26.404Z,25.84
2022-08-18T09:40:58.904Z,26.01
2022-08-18T09:43:23.534Z,26.24
2022-08-18T09:45:59.606Z,26.44
2022-08-18T09:48:36.057Z,26.52
2022-08-18T09:51:33.962Z,26.76
2022-08-18T09:54:12.359Z,26.80
2022-08-18T09:56:53.456Z,26.86
2022-08-18T09:59:34.564Z,26.94
2022-08-18T10:02:20.130Z,26.84
2022-08-18T10:04:51.101Z,26.83
2022-08-18T10:07:43.550Z,26.87
2022-08-18T10:11:01.608Z,27.07
2022-08-18T10:14:00.142Z,27.24
2022-08-18T10:16:31.918Z,27.30
2022-08-18T10:19:11.587Z,27.41
2022-08-18T10:21:56.090Z,27.54
2022-08-18T10:27:46.893Z,27.52
2022-08-18T10:30:34.565Z,27.48
2022-08-18T10:35:58.467Z,27.30
2022-08-18T10:38:36.839Z,27.30
2022-08-18T10:41:15.592Z,27.15
2022-08-18T10:43:57.753Z,27.22
2022-08-18T10:46:31.848Z,27.24
2022-08-18T10:49:08.828Z,27.31
2022-08-18T10:51:59.807Z,27.46
2022-08-18T10:54:54.243Z,27.54
2022-08-18T10:57:24.199Z,27.59
2022-08-18T11:00:17.407Z,27.69
2022-08-18T11:06:14.549Z,27.64
2022-08-18T11:08:47.759Z,27.61
2022-08-18T11:11:37.623Z,27.67
2022-08-18T11:14:12.600Z,27.75
2022-08-18T11:17:06.863Z,27.93
2022-08-18T11:19:42.777Z,28.07
2022-08-18T11:22:33.284Z,28.34
2022-08-18T11:25:03.077Z,28.49
2022-08-18T11:27:35.783Z,28.82
2022-08-18T11:30:05.549Z,29.16
2022-08-18T11:32:42.659Z,29.55
2022-08-18T11:35:31.718Z,29.99
2022-08-18T11:38:04.457Z,30.24
2022-08-18T11:41:10.962Z,30.41
2022-08-18T11:43:41.539Z,30.72
2022-08-18T11:46:33.599Z,31.01
2022-08-18T11:49:18.105Z,31.31
2022-08-18T11:52:34.410Z,31.63
2022-08-18T11:55:15.244Z,31.63
2022-08-18T11:57:56.090Z,31.83
2022-08-18T12:00:43.221Z,31.82
2022-08-18T12:03:10.282Z,31.74
2022-08-18T12:05:55.868Z,31.94
2022-08-18T12:08:56.114Z,31.98
2022-08-18T12:11:26.620Z,32.15
2022-08-18T12:16:54.875Z,32.39
2022-08-18T12:19:24.212Z,32.47
2022-08-18T12:21:50.935Z,32.39
2022-08-18T12:24:26.047Z,32.35
2022-08-18T12:26:54.903Z,32.28
2022-08-18T12:29:22.563Z,32.14
2022-08-18T12:31:54.888Z,32.11
2022-08-18T12:34:26.604Z,32.18
2022-08-18T12:36:58.613Z,32.20
2022-08-18T12:39:25.041Z,32.16
2022-08-18T12:41:51.464Z,32.12
2022-08-18T12:44:18.794Z,32.11
2022-08-18T12:46:47.740Z,32.05
2022-08-18T12:49:19.784Z,32.02
2022-08-18T12:51:50.094Z,32.02
2022-08-18T12:54:18.146Z,32.08
2022-08-18T12:56:50.269Z,32.19
2022-08-18T12:59:17.002Z,32.23
2022-08-18T13:01:44.229Z,32.28
2022-08-18T13:07:01.941Z,32.30
2022-08-18T13:09:53.384Z,32.23
2022-08-18T13:12:21.003Z,32.22
2022-08-18T13:14:47.981Z,32.13
2022-08-18T13:17:32.242Z,32.09
2022-08-18T13:20:00.492Z,32.12
2022-08-18T13:22:32.329Z,32.20
2022-08-18T13:25:05.602Z,32.13
2022-08-18T13:27:35.554Z,32.12
2022-08-18T13:30:29.744Z,32.10
2022-08-18T13:32:58.917Z,32.01
2022-08-18T13:35:30.000Z,31.94
2022-08-18T13:38:06.514Z,31.83
2022-08-18T13:40:45.627Z,31.70
2022-08-18T13:43:15.700Z,31.69
2022-08-18T13:45:44.426Z,31.66
2022-08-18T13:48:11.668Z,31.62
2022-08-18T13:50:40.298Z,31.68
2022-08-18T13:53:16.044Z,31.78
2022-08-18T13:55:43.481Z,31.72
2022-08-18T13:58:20.365Z,31.75
2022-08-18T14:00:52.412Z,31.84
2022-08-18T14:03:42.304Z,31.83
2022-08-18T14:06:10.881Z,31.85
2022-08-18T14:08:40.913Z,31.79
2022-08-18T14:11:08.894Z,31.79
2022-08-18T14:13:38.123Z,31.70
2022-08-18T14:16:05.105Z,31.75
2022-08-18T14:18:31.659Z,31.85
2022-08-18T14:21:23.113Z,31.86
2022-08-18T14:24:10.274Z,31.82
2022-08-18T14:26:50.104Z,31.77
2022-08-18T14:29:46.218Z,31.82
2022-08-18T14:32:06.380Z,31.84
2022-08-18T14:34:32.948Z,31.82
2022-08-18T14:36:59.369Z,31.76
2022-08-18T14:39:26.645Z,31.70
2022-08-18T14:41:56.188Z,31.45
2022-08-18T14:44:24.373Z,31.31
2022-08-18T14:46:54.652Z,31.30
2022-08-18T14:49:28.484Z,31.19
2022-08-18T14:51:57.180Z,30.89
2022-08-18T14:54:24.193Z,30.85
2022-08-18T14:56:55.541Z,30.63
2022-08-18T14:59:23.217Z,30.64
2022-08-18T15:01:51.394Z,30.55
2022-08-18T15:04:18.997Z,30.53
2022-08-18T15:06:56.389Z,30.55
2022-08-18T15:09:26.945Z,30.59
2022-08-18T15:11:55.880Z,30.57
2022-08-18T15:14:26.545Z,30.63
2022-08-18T15:17:00.113Z,30.65
2022-08-18T15:19:59.307Z,30.57
2022-08-18T15:22:34.201Z,30.54
2022-08-18T15:25:19.230Z,30.35
2022-08-18T15:27:52.199Z,30.34
2022-08-18T15:30:19.834Z,30.28
2022-08-18T15:32:47.766Z,30.15
2022-08-18T15:35:17.827Z,30.00
2022-08-18T15:37:46.781Z,30.32
2022-08-18T15:40:30.433Z,29.99
2022-08-18T15:43:06.816Z,29.76
2022-08-18T15:45:42.912Z,29.78
2022-08-18T15:48:19.804Z,29.96
2022-08-18T15:50:51.013Z,29.84
2022-08-18T15:53:20.900Z,29.87
2022-08-18T15:55:50.285Z,29.89
2022-08-18T15:58:22.157Z,29.94
2022-08-18T16:00:52.282Z,29.98
2022-08-18T16:03:21.210Z,29.98
2022-08-18T16:05:54.793Z,29.96
2022-08-18T16:08:25.268Z,29.84
2022-08-18T16:10:53.583Z,29.69
2022-08-18T16:13:20.811Z,29.53
2022-08-18T16:15:50.200Z,29.35
2022-08-18T16:18:18.787Z,29.15
2022-08-18T16:20:45.314Z,28.97
2022-08-18T16:23:13.382Z,28.81
2022-08-18T16:25:41.330Z,28.72
2022-08-18T16:28:08.347Z,28.65
2022-08-18T16:30:35.571Z,28.43
2022-08-18T16:33:07.085Z,28.55
2022-08-18T16:35:35.201Z,28.48
2022-08-18T16:38:04.580Z,28.44
2022-08-18T16:40:31.105Z,28.27
2022-08-18T16:42:59.992Z,28.35
2022-08-18T16:45:27.809Z,28.37
2022-08-18T16:47:54.874Z,28.42
2022-08-18T16:50:23.456Z,28.31
2022-08-18T16:52:50.121Z,28.45
2022-08-18T16:55:16.850Z,28.43
2022-08-18T16:58:02.994Z,28.20
2022-08-18T17:00:54.533Z,28.27
2022-08-18T17:03:41.734Z,28.20
2022-08-18T17:06:11.215Z,28.16
2022-08-18T17:08:39.049Z,27.93
2022-08-18T17:11:09.454Z,28.05
2022-08-18T17:13:37.571Z,28.02
2022-08-18T17:16:04.367Z,27.99
2022-08-18T17:18:31.532Z,27.95
2022-08-18T17:21:02.431Z,27.92
2022-08-18T17:23:29.220Z,27.85
2022-08-18T17:25:57.861Z,27.79
2022-08-18T17:28:32.350Z,27.76
2022-08-18T17:31:01.968Z,27.63
2022-08-18T17:33:32.999Z,27.64
2022-08-18T17:36:08.554Z,27.60
2022-08-18T17:38:49.283Z,27.51
2022-08-18T17:41:21.132Z,27.37
2022-08-18T17:43:48.191Z,27.36
2022-08-18T17:46:26.860Z,27.22
2022-08-18T17:49:03.930Z,27.10
2022-08-18T17:51:48.933Z,26.96
2022-08-18T17:54:36.860Z,26.67
2022-08-18T17:57:13.581Z,26.39
2022-08-18T18:00:12.211Z,26.15
2022-08-18T18:02:40.648Z,25.81
2022-08-18T18:05:11.132Z,25.51
2022-08-18T18:07:43.545Z,25.47
2022-08-18T18:10:14.250Z,25.10
2022-08-18T18:12:41.145Z,25.17
2022-08-18T18:15:14.124Z,25.05
2022-08-18T18:17:42.864Z,24.95
2022-08-18T18:20:39.523Z,24.88
2022-08-18T18:23:27.864Z,24.73
2022-08-18T18:25:58.041Z,24.52
2022-08-18T18:28:33.838Z,24.39
2022-08-18T18:31:26.270Z,24.28
2022-08-18T18:34:00.841Z,24.12
2022-08-18T18:36:44.230Z,24.01
2022-08-18T18:39:17.126Z,23.91
2022-08-18T18:41:44.157Z,23.60
2022-08-18T18:44:13.876Z,23.61
2022-08-18T18:46:49.165Z,23.53
2022-08-18T18:49:23.062Z,23.42
2022-08-18T18:52:05.482Z,23.36
2022-08-18T18:54:49.732Z,23.27
2022-08-18T18:57:32.092Z,23.20
2022-08-18T19:00:02.539Z,23.11
2022-08-18T19:02:35.056Z,23.08
2022-08-18T19:05:20.759Z,23.05
2022-08-18T19:07:58.919Z,22.95
2022-08-18T19:10:31.395Z,22.88
2022-08-18T19:13:02.963Z,22.80
2022-08-18T19:15:33.299Z,22.75
2022-08-18T19:18:14.035Z,22.69
2022-08-18T19:22:02.007Z,22.63
2022-08-18T19:23:44.988Z,22.56
2022-08-18T19:26:19.439Z,22.50
2022-08-18T19:29:12.496Z,22.48
2022-08-18T19:31:41.515Z,22.45
2022-08-18T19:34:11.263Z,22.42
2022-08-18T19:36:49.211Z,22.40
2022-08-18T19:39:27.733Z,22.33
2022-08-18T19:41:59.885Z,22.34
2022-08-18T19:44:26.312Z,22.29
2022-08-18T19:46:57.193Z,22.26
2022-08-18T19:49:48.615Z,22.23
2022-08-18T19:52:46.454Z,22.22
2022-08-18T19:55:33.350Z,22.23
2022-08-18T19:58:02.826Z,22.17
2022-08-18T20:00:57.398Z,22.18
2022-08-18T20:03:53.773Z,22.03
2022-08-18T20:06:59.080Z,22.13
2022-08-18T20:09:53.693Z,22.11
2022-08-18T20:13:03.140Z,22.05
2022-08-18T20:15:31.081Z,22.00
2022-08-18T20:17:57.475Z,21.96
2022-08-18T20:20:26.740Z,21.91
2022-08-18T20:22:57.447Z,21.90
2022-08-18T20:25:23.941Z,21.87
2022-08-18T20:28:13.105Z,21.82
2022-08-18T20:30:39.527Z,21.80
2022-08-18T20:33:06.947Z,21.74
2022-08-18T20:35:41.047Z,21.67
2022-08-18T20:38:28.604Z,21.67
2022-08-18T20:40:55.969Z,21.62
2022-08-18T20:43:27.449Z,21.60
2022-08-18T20:46:09.776Z,21.56
2022-08-18T20:49:05.941Z,21.56
2022-08-18T20:51:42.557Z,21.49
2022-08-18T20:54:18.927Z,21.48
2022-08-18T20:56:55.512Z,21.42
2022-08-18T20:59:32.583Z,21.38
2022-08-18T21:02:04.303Z,21.27
2022-08-18T21:04:44.616Z,21.35
2022-08-18T21:07:35.912Z,21.28
2022-08-18T21:10:13.452Z,21.36
2022-08-18T21:12:51.929Z,21.26
2022-08-18T21:15:20.590Z,21.37
2022-08-18T21:17:57.322Z,21.40
2022-08-18T21:20:24.514Z,21.38
2022-08-18T21:23:06.358Z,21.44
2022-08-18T21:25:33.262Z,21.41
2022-08-18T21:28:02.226Z,21.43
2022-08-18T21:30:28.713Z,21.44
2022-08-18T21:32:55.250Z,21.43
2022-08-18T21:35:22.194Z,21.42
2022-08-18T21:38:05.559Z,21.46
2022-08-18T21:40:36.045Z,21.45
2022-08-18T21:43:03.000Z,21.43
2022-08-18T21:45:29.847Z,21.37
2022-08-18T21:48:02.187Z,21.38
2022-08-18T21:50:31.652Z,21.35
2022-08-18T21:53:18.897Z,21.34
2022-08-18T21:55:48.956Z,21.31
2022-08-18T21:58:32.588Z,21.29
2022-08-18T22:01:28.217Z,21.32
2022-08-18T22:04:22.076Z,21.27
2022-08-18T22:06:52.711Z,21.25
2022-08-18T22:09:41.623Z,21.25
2022-08-18T22:12:52.215Z,21.30
2022-08-18T22:15:36.861Z,21.29
2022-08-18T22:18:06.453Z,21.27
2022-08-18T22:20:50.939Z,21.33
2022-08-18T22:23:42.393Z,21.35
2022-08-18T22:26:36.813Z,21.43
2022-08-18T22:29:06.146Z,21.41
2022-08-18T22:31:45.730Z,21.44
2022-08-18T22:34:18.210Z,21.45
2022-08-18T22:37:00.366Z,21.49
2022-08-18T22:39:36.701Z,21.51
2022-08-18T22:42:04.267Z,21.50
2022-08-18T22:44:30.751Z,21.51
2022-08-18T22:46:57.687Z,21.53
2022-08-18T22:49:24.285Z,21.52
2022-08-18T22:51:53.225Z,21.55
2022-08-18T22:54:21.541Z,21.57
2022-08-18T22:56:53.949Z,21.54
2022-08-18T22:59:23.251Z,21.57
2022-08-18T23:01:50.897Z,21.44
2022-08-18T23:04:19.694Z,21.57
2022-08-18T23:06:48.543Z,21.61
2022-08-18T23:09:15.053Z,21.62
2022-08-18T23:11:41.559Z,21.64
2022-08-18T23:14:08.096Z,21.65
2022-08-18T23:16:34.543Z,21.66
2022-08-18T23:19:04.002Z,21.70
2022-08-18T23:21:34.152Z,21.54
2022-08-18T23:24:04.547Z,21.70
2022-08-18T23:26:31.194Z,21.61
2022-08-18T23:28:57.913Z,21.75
2022-08-18T23:31:24.384Z,21.75
2022-08-18T23:33:51.325Z,21.64
2022-08-18T23:36:17.846Z,21.77
2022-08-18T23:38:44.691Z,21.79
2022-08-18T23:41:12.920Z,21.67
2022-08-18T23:43:40.050Z,21.81
2022-08-18T23:46:15.882Z,21.83
2022-08-18T23:48:44.683Z,21.73
2022-08-18T23:51:11.125Z,21.82
2022-08-18T23:53:38.452Z,21.73
2022-08-18T23:56:06.081Z,21.77
2022-08-18T23:58:32.572Z,21.83
